Terminal Aerodrome Forecast
Issued by NWS

Home | Current Version | Previous Version | Text Only | Print | Product List | Glossary On
Versions: 1 2 3 4 5 6 7 8 9 10 11 12 13 14 15 16 17 18 19 20 21 22
000
FTUS43 KLSX 171137
TAFUIN
TAF
KUIN 171137Z 1712/1812 14014G21KT P6SM SCT020 OVC080
     FM171400 15014G24KT P6SM BKN020
     FM180300 18011G19KT 6SM -SHRA VCTS OVC015CB
     FM180800 25009KT 4SM -SHRA BR OVC015=

USA.gov is the U.S. government's official web portal to all federal, state and local government web resources and services.